Home > Products > Valid Products > MTR

000
SAUS44 KLZK 052154
MTRMWT
METAR KMWT 052153Z AUTO VRB05KT 10SM CLR 25/07 A2996 RMK AO2 SLP142
T02500067





000
SAUS44 KLZK 052054
MTRMWT
METAR KMWT 052053Z AUTO 10SM CLR 24/06 A2997 RMK AO2 SLP146
T02440061 58016





000
SAUS44 KLZK 051954
MTRMWT
METAR KMWT 051953Z AUTO 35009G15KT 320V020 10SM CLR 24/05 A3000 RMK
AO2 SLP154 T02440050





000
SAUS44 KLZK 051854
MTRMWT
METAR KMWT 051853Z AUTO VRB03KT 10SM CLR 23/03 A3001 RMK AO2 SLP157
T02330033





000
SAUS44 KLZK 051854
MTRMWT
METAR KMWT 051853Z AUTO VRB03KT 10SM CLR 23/03 A3001 RMK AO2 SLP157
T02330033





000
SAUS44 KLZK 051754
MTRMWT
METAR KMWT 051753Z AUTO 00000KT 10SM CLR 23/04 A3002 RMK AO2 SLP162
T02330044 10233 20072 58006





000
SAUS44 KLZK 051754
MTRMWT
METAR KMWT 051753Z AUTO 00000KT 10SM CLR 23/04 A3002 RMK AO2 SLP162
T02330044 10233 20072 58006





000
SAUS44 KLZK 051654
MTRMWT
METAR KMWT 051653Z AUTO VRB04KT 10SM CLR 22/04 A3004 RMK AO2 SLP168
T02220039





000
SAUS44 KLZK 051654
MTRMWT
METAR KMWT 051653Z AUTO VRB04KT 10SM CLR 22/04 A3004 RMK AO2 SLP168
T02220039





000
SAUS44 KLZK 051554
MTRMWT
METAR KMWT 051553Z AUTO 35006KT 10SM CLR 22/04 A3004 RMK AO2 SLP169
T02170039





000
SAUS44 KLZK 051454
MTRMWT
METAR KMWT 051453Z AUTO 00000KT 10SM CLR 19/06 A3004 RMK AO2 SLP168
T01940061 51013





000
SAUS44 KLZK 051354
MTRMWT
METAR KMWT 051353Z AUTO 00000KT 10SM CLR 16/08 A3003 RMK AO2 SLP165
T01610083





000
SAUS44 KLZK 051254
MTRMWT
METAR KMWT 051253Z AUTO 00000KT 10SM CLR 11/09 A3002 RMK AO2 SLP162
T01110089





000
SAUS44 KLZK 051254
MTRMWT
METAR KMWT 051253Z AUTO 00000KT 10SM CLR 11/09 A3002 RMK AO2 SLP162
T01110089





000
SAUS44 KLZK 051154
MTRMWT
METAR KMWT 051153Z AUTO 00000KT 10SM CLR 07/06 A3000 RMK AO2 SLP156
7//// T00720056 10111 20067 53016





000
SAUS44 KLZK 051054
MTRMWT
METAR KMWT 051053Z AUTO 00000KT 10SM CLR 07/06 A2998 RMK AO2 SLP148
T00720056





000
SAUS44 KLZK 051054
MTRMWT
METAR KMWT 051053Z AUTO 00000KT 10SM CLR 07/06 A2998 RMK AO2 SLP148
T00720056





000
SAUS44 KLZK 050954
MTRMWT
METAR KMWT 050953Z AUTO 00000KT 10SM CLR 08/06 A2996 RMK AO2 SLP142
T00780061





000
SAUS44 KLZK 050854
MTRMWT
METAR KMWT 050853Z AUTO 27003KT 10SM CLR 08/06 A2995 RMK AO2 SLP139
T00830061 55002





000
SAUS44 KLZK 050854
MTRMWT
METAR KMWT 050853Z AUTO 27003KT 10SM CLR 08/06 A2995 RMK AO2 SLP139
T00830061 55002





000
SAUS44 KLZK 050754
MTRMWT
METAR KMWT 050753Z AUTO 00000KT 10SM CLR 09/06 A2995 RMK AO2 SLP137
T00890061





000
SAUS44 KLZK 050654
MTRMWT
METAR KMWT 050653Z AUTO 27003KT 10SM CLR 11/06 A2996 RMK AO2 SLP138
T01060061





000
SAUS44 KLZK 050554
MTRMWT
METAR KMWT 050553Z AUTO 00000KT 10SM CLR 11/06 A2996 RMK AO2 SLP139
T01110061 10244 20111 402670078 51015





000
SAUS44 KLZK 050454
MTRMWT
METAR KMWT 050453Z AUTO 00000KT 10SM CLR 13/06 A2995 RMK AO2 SLP142
T01280061





000
SAUS44 KLZK 050454
MTRMWT
METAR KMWT 050453Z AUTO 00000KT 10SM CLR 13/06 A2995 RMK AO2 SLP142
T01280061





000
SAUS44 KLZK 050354
MTRMWT
METAR KMWT 050353Z AUTO 00000KT 10SM CLR 13/07 A2994 RMK AO2 SLP140
T01330067





000
SAUS44 KLZK 050354
MTRMWT
METAR KMWT 050353Z AUTO 00000KT 10SM CLR 13/07 A2994 RMK AO2 SLP140
T01330067





000
SAUS44 KLZK 050254
MTRMWT
METAR KMWT 050253Z AUTO 00000KT 10SM CLR 14/07 A2991 RMK AO2 SLP131
T01390072 53015





000
SAUS44 KLZK 050154
MTRMWT
METAR KMWT 050153Z AUTO 30003KT 10SM CLR 17/06 A2990 RMK AO2 SLP124
T01720056





000
SAUS44 KLZK 050054
MTRMWT
METAR KMWT 050053Z AUTO 31004KT 10SM CLR 21/05 A2988 RMK AO2 SLP117
T02060050





000
SAUS44 KLZK 050054
MTRMWT
METAR KMWT 050053Z AUTO 31004KT 10SM CLR 21/05 A2988 RMK AO2 SLP117
T02060050





000
SAUS44 KLZK 042354
MTRMWT
METAR KMWT 042353Z AUTO VRB04KT 10SM CLR 24/04 A2987 RMK AO2 SLP110
T02440044 10267 20244 53005





000
SAUS44 KLZK 042354
MTRMWT
METAR KMWT 042353Z AUTO VRB04KT 10SM CLR 24/04 A2987 RMK AO2 SLP110
T02440044 10267 20244 53005





000
SAUS44 KLZK 042254
MTRMWT
METAR KMWT 042253Z AUTO VRB06G17KT 10SM CLR 26/06 A2986 RMK AO2
SLP105 T02560061





000
SAUS44 KLZK 042154
MTRMWT
METAR KMWT 042153Z AUTO 33008G16KT 300V010 10SM CLR 24/09 A2985 RMK
AO2 SLP104 T02440089





000
SAUS44 KLZK 042054
MTRMWT
METAR KMWT 042053Z AUTO VRB06G18KT 10SM SCT075 26/09 A2985 RMK AO2
SLP103 T02610094 56013





000
SAUS44 KLZK 042054
MTRMWT
METAR KMWT 042053Z AUTO VRB06G18KT 10SM SCT075 26/09 A2985 RMK AO2
SLP103 T02610094 56013





000
SAUS44 KLZK 041954
MTRMWT
METAR KMWT 041953Z AUTO 32007G19KT 10SM CLR 26/09 A2986 RMK AO2
SLP106 T02610089





000
SAUS44 KLZK 041854
MTRMWT
METAR KMWT 041853Z AUTO 30009G16KT 260V350 10SM CLR 26/09 A2987 RMK
AO2 SLP110 T02560089





000
SAUS44 KLZK 041754
MTRMWT
METAR KMWT 041753Z AUTO 33007G21KT 250V360 10SM CLR 25/09 A2989 RMK
AO2 SLP115 6//// T02500094 10250 20078





000
SAUS44 KLZK 041754
MTRMWT
METAR KMWT 041753Z AUTO 33007G21KT 250V360 10SM CLR 25/09 A2989 RMK
AO2 SLP115 6//// T02500094 10250 20078





000
SAUS44 KLZK 041154
MTRMWT
METAR KMWT 041153Z AUTO 00000KT 9SM CLR 08/07 A2995 RMK AO2 SLP141
T00830072 10094 20078 55007





000
SAUS44 KLZK 041054
MTRMWT
METAR KMWT 041053Z AUTO 00000KT 10SM CLR 08/06 A2995 RMK AO2 SLP141
T00780061





000
SAUS44 KLZK 041054
MTRMWT
METAR KMWT 041053Z AUTO 00000KT 10SM CLR 08/06 A2995 RMK AO2 SLP141
T00780061





000
SAUS44 KLZK 040954
MTRMWT
METAR KMWT 040953Z AUTO 00000KT 10SM CLR 08/06 A2996 RMK AO2 SLP144
T00830061





000
SAUS44 KLZK 040954
MTRMWT
METAR KMWT 040953Z AUTO 00000KT 10SM CLR 08/06 A2996 RMK AO2 SLP144
T00830061





000
SAUS44 KLZK 040854
MTRMWT
METAR KMWT 040853Z AUTO 00000KT 10SM CLR 08/07 A2997 RMK AO2 SLP148
T00830067 56009





000
SAUS44 KLZK 040754
MTRMWT
METAR KMWT 040753Z AUTO 00000KT 9SM CLR 08/07 A2998 RMK AO2 SLP151
T00830072





000
SAUS44 KLZK 040654
MTRMWT
METAR KMWT 040653Z AUTO 00000KT 10SM CLR 09/07 A2999 RMK AO2 SLP155
T00890072





000
SAUS44 KLZK 040554
MTRMWT
METAR KMWT 040553Z AUTO 00000KT 10SM CLR 09/08 A3000 RMK AO2 SLP159
T00940078 10194 20094 402220078 50000





000
SAUS44 KLZK 040554
MTRMWT
METAR KMWT 040553Z AUTO 00000KT 10SM CLR 09/08 A3000 RMK AO2 SLP159
T00940078 10194 20094 402220078 50000





000
SAUS44 KLZK 040454
MTRMWT
METAR KMWT 040453Z AUTO 00000KT 10SM CLR 10/08 A3000 RMK AO2 SLP159
T01000083





000
SAUS44 KLZK 040354
MTRMWT
METAR KMWT 040353Z AUTO 00000KT 10SM CLR 11/09 A3000 RMK AO2 SLP159
T01060089





000
SAUS44 KLZK 040354
MTRMWT
METAR KMWT 040353Z AUTO 00000KT 10SM CLR 11/09 A3000 RMK AO2 SLP159
T01060089





000
SAUS44 KLZK 040254
MTRMWT
METAR KMWT 040253Z AUTO 28003KT 10SM CLR 12/09 A3000 RMK AO2 SLP159
T01170089 53008





000
SAUS44 KLZK 040154
MTRMWT
METAR KMWT 040153Z AUTO 00000KT 10SM CLR 13/09 A2999 RMK AO2 SLP155
T01280089





000
SAUS44 KLZK 040154
MTRMWT
METAR KMWT 040153Z AUTO 00000KT 10SM CLR 13/09 A2999 RMK AO2 SLP155
T01280089





000
SAUS44 KLZK 040054
MTRMWT
METAR KMWT 040053Z AUTO 00000KT 10SM CLR 16/08 A2999 RMK AO2 SLP153
T01610083





000
SAUS44 KLZK 032354
MTRMWT
METAR KMWT 032353Z AUTO 00000KT 10SM CLR 20/07 A2998 RMK AO2 SLP151
T02000067 10222 20183 56006





000
SAUS44 KLZK 032354
MTRMWT
METAR KMWT 032353Z AUTO 00000KT 10SM CLR 20/07 A2998 RMK AO2 SLP151
T02000067 10222 20183 56006





000
SAUS44 KLZK 032254
MTRMWT
METAR KMWT 032253Z AUTO VRB05KT 10SM CLR 20/06 A2998 RMK AO2 SLP152
T02000061





000
SAUS44 KLZK 032254
MTRMWT
METAR KMWT 032253Z AUTO VRB05KT 10SM CLR 20/06 A2998 RMK AO2 SLP152
T02000061





000
SAUS44 KLZK 032154
MTRMWT
METAR KMWT 032153Z AUTO VRB04KT 10SM FEW060 21/06 A2999 RMK AO2
SLP153 T02110061





000
SAUS44 KLZK 032054
MTRMWT
METAR KMWT 032053Z AUTO 32008KT 10SM SCT060 21/06 A3000 RMK AO2
SLP156 T02110061 58018





000
SAUS44 KLZK 031954
MTRMWT
METAR KMWT 031953Z AUTO 00000KT 10SM BKN060 20/06 A3002 RMK AO2
SLP163 T02000061





000
SAUS44 KLZK 031854
MTRMWT
METAR KMWT 031853Z AUTO VRB03KT 10SM BKN055 20/07 A3003 RMK AO2
SLP165 T02000072





000
SAUS44 KLZK 031854
MTRMWT
METAR KMWT 031853Z AUTO VRB03KT 10SM BKN055 20/07 A3003 RMK AO2
SLP165 T02000072





000
SAUS44 KLZK 031754
MTRMWT
METAR KMWT 031753Z AUTO VRB05KT 10SM SCT050 18/07 A3005 RMK AO2
SLP173 T01830067 10189 20078 58007





000
SAUS44 KLZK 031654
MTRMWT
METAR KMWT 031653Z AUTO 00000KT 10SM BKN046 18/07 A3007 RMK AO2
SLP180 T01780067





000
SAUS44 KLZK 031654
MTRMWT
METAR KMWT 031653Z AUTO 00000KT 10SM BKN046 18/07 A3007 RMK AO2
SLP180 T01780067





000
SAUS44 KLZK 031555
MTRMWT
METAR KMWT 031553Z AUTO VRB03KT 10SM BKN037 17/08 A3007 RMK AO2
SLP181 T01720083





000
SAUS44 KLZK 031526 COR
MTRMWT
SPECI KMWT 031523Z AUTO VRB03KT 10SM BKN033 BKN040 17/08 A3007 RMK
AO2 T01670083





000
SAUS44 KLZK 031457 COR
MTRMWT
METAR KMWT 031453Z AUTO 32003KT 10SM BKN027 BKN034 14/08 A3007 RMK
AO2 SLP182 T01440078 51006





000
SAUS44 KLZK 031354
MTRMWT
METAR KMWT 031353Z AUTO 00000KT 10SM CLR 13/08 A3007 RMK AO2 SLP180
T01330083





000
SAUS44 KLZK 031257 COR
MTRMWT
METAR KMWT 031253Z AUTO 00000KT 10SM CLR 11/08 A3005 RMK AO2 SLP176
T01060083





000
SAUS44 KLZK 031257 COR
MTRMWT
METAR KMWT 031253Z AUTO 00000KT 10SM CLR 11/08 A3005 RMK AO2 SLP176
T01060083





000
SAUS44 KLZK 031156 COR
MTRMWT
METAR KMWT 031153Z AUTO 00000KT 8SM CLR 08/07 A3004 RMK AO2 SLP173
T00780067 10122 20078 53009





000
SAUS44 KLZK 031056 COR
MTRMWT
METAR KMWT 031053Z AUTO 28003KT 9SM CLR 08/07 A3003 RMK AO2 SLP168
T00780067





000
SAUS44 KLZK 030957 COR
MTRMWT
METAR KMWT 030953Z AUTO 29003KT 10SM CLR 09/07 A3002 RMK AO2 SLP163
T00890072





000
SAUS44 KLZK 030854
MTRMWT
METAR KMWT 030853Z AUTO 00000KT 8SM CLR 08/07 A3001 RMK AO2 SLP163
T00830072 56008





000
SAUS44 KLZK 030757 COR
MTRMWT
METAR KMWT 030753Z AUTO 00000KT 9SM CLR 09/08 A3002 RMK AO2 SLP164
T00940083





000
SAUS44 KLZK 030657 COR
MTRMWT
METAR KMWT 030653Z AUTO 00000KT 10SM FEW046 11/09 A3002 RMK AO2
SLP165 T01060089





000
SAUS44 KLZK 030556 COR
MTRMWT
METAR KMWT 030553Z AUTO 00000KT 10SM OVC047 12/09 A3004 RMK AO2
SLP170 T01220089 10167 20122 401940122 50000





000
SAUS44 KLZK 030556 COR
MTRMWT
METAR KMWT 030553Z AUTO 00000KT 10SM OVC047 12/09 A3004 RMK AO2
SLP170 T01220089 10167 20122 401940122 50000





000
SAUS44 KLZK 030454
MTRMWT
METAR KMWT 030453Z AUTO 00000KT 10SM OVC048 12/09 A3004 RMK AO2
SLP169 T01220094





000
SAUS44 KLZK 030354
MTRMWT
METAR KMWT 030353Z AUTO 00000KT 10SM OVC050 12/09 A3005 RMK AO2
SLP173 T01220089





000
SAUS44 KLZK 030354
MTRMWT
METAR KMWT 030353Z AUTO 00000KT 10SM OVC050 12/09 A3005 RMK AO2
SLP173 T01220089





000
SAUS44 KLZK 030254
MTRMWT
METAR KMWT 030253Z AUTO 30003KT 10SM CLR 13/09 A3004 RMK AO2 SLP170
T01330094 53010





000
SAUS44 KLZK 030154
MTRMWT
METAR KMWT 030153Z AUTO VRB04KT 10SM OVC050 14/09 A3002 RMK AO2
SLP163 T01440094





000
SAUS44 KLZK 030154
MTRMWT
METAR KMWT 030153Z AUTO VRB04KT 10SM OVC050 14/09 A3002 RMK AO2
SLP163 T01440094





000
SAUS44 KLZK 030054
MTRMWT
METAR KMWT 030053Z AUTO VRB03KT 10SM SCT028 BKN035 OVC050 16/10
A3002 RMK AO2 SLP162 T01560100





000
SAUS44 KLZK 022354
MTRMWT
METAR KMWT 022353Z AUTO VRB04KT 10SM BKN050 OVC055 17/11 A3001 RMK
AO2 SLP159 T01670106 10194 20167 53003





000
SAUS44 KLZK 022354
MTRMWT
METAR KMWT 022353Z AUTO VRB04KT 10SM BKN050 OVC055 17/11 A3001 RMK
AO2 SLP159 T01670106 10194 20167 53003





000
SAUS44 KLZK 022254
MTRMWT
METAR KMWT 022253Z AUTO VRB06KT 10SM OVC050 18/11 A3000 RMK AO2
SLP156 T01780111





000
SAUS44 KLZK 022254
MTRMWT
METAR KMWT 022253Z AUTO VRB06KT 10SM OVC050 18/11 A3000 RMK AO2
SLP156 T01780111





    US Dept of Commerce
    National Oceanic and Atmospheric Administration
    National Weather Service
    1325 East West Highway
    Silver Spring, MD 20910
    Page Author: NWS Internet Services Team
Disclaimer
Information Quality
Credits
Glossary
Privacy Policy
Freedom of Information Act (FOIA)
About Us
Career Opportunities